AR-0074 weather

Caleufu Airport
Caleufu, Neuquén Province, Argentina

Public forecast

Using degrees Celsius for public forecast. Weather courtesy of forecast.io.

Closest aviation weather report (METAR) to Caleufu Airport

Report is more than 6 hours old.

Closest report is Aviador C. Campos Airport, 20.7 nm (38.4 km) NNW. Retrieved 2020/01/25 19:20 UTC (4 days ago):

SAZY 251920Z 27020G31KT 9999 FEW040 SCT100 24/09 Q1015

Closest aviation forecast (TAF) to Caleufu Airport

Forecast is more than 12 hours old.

Closest forecast is Aviador C. Campos Airport, 20.7 nm (38.4 km) NNW. Retrieved 2020-01-15 00:54 UTC (15 days ago):

TAF SAZY 142300Z 1500/1524 260200G35KT 9999 FEW045 TX17/1520Z TN03/1510Z BECMG 1500/1502 CAVOK BECMG 1509/1511 27010KT BECMG 1518/1520 26015KT